sensor_id;sensor_type;location;lat;lon;timestamp;temperature;humidity
48988;DHT22;34799;51.440;-2.534;2023-04-06T00:01:12;11.00;99.90
48988;DHT22;34799;51.440;-2.534;2023-04-06T00:03:39;11.00;99.90
48988;DHT22;34799;51.440;-2.534;2023-04-06T00:06:06;11.00;99.90
48988;DHT22;34799;51.440;-2.534;2023-04-06T00:08:33;11.00;99.90
48988;DHT22;34799;51.440;-2.534;2023-04-06T00:11:00;10.90;99.90
48988;DHT22;34799;51.440;-2.534;2023-04-06T00:13:27;10.90;99.90
48988;DHT22;34799;51.440;-2.534;2023-04-06T00:15:56;10.90;99.90
48988;DHT22;34799;51.440;-2.534;2023-04-06T00:18:23;11.00;99.90
48988;DHT22;34799;51.440;-2.534;2023-04-06T00:20:50;10.90;99.90
48988;DHT22;34799;51.440;-2.534;2023-04-06T00:23:18;11.00;99.90
48988;DHT22;34799;51.440;-2.534;2023-04-06T00:25:45;10.90;99.90
48988;DHT22;34799;51.440;-2.534;2023-04-06T00:28:13;10.90;99.90
48988;DHT22;34799;51.440;-2.534;2023-04-06T00:30:42;10.90;99.90
48988;DHT22;34799;51.440;-2.534;2023-04-06T00:33:09;10.90;99.90
48988;DHT22;34799;51.440;-2.534;2023-04-06T00:35:36;11.00;99.90
48988;DHT22;34799;51.440;-2.534;2023-04-06T00:38:03;11.00;99.90
48988;DHT22;34799;51.440;-2.534;2023-04-06T00:40:30;11.00;99.90
48988;DHT22;34799;51.440;-2.534;2023-04-06T00:42:57;11.00;99.90
48988;DHT22;34799;51.440;-2.534;2023-04-06T00:45:24;11.00;99.90
48988;DHT22;34799;51.440;-2.534;2023-04-06T00:47:53;11.00;99.90
48988;DHT22;34799;51.440;-2.534;2023-04-06T00:50:20;11.00;99.90
48988;DHT22;34799;51.440;-2.534;2023-04-06T00:52:47;10.90;99.90
48988;DHT22;34799;51.440;-2.534;2023-04-06T00:55:16;10.90;99.90
48988;DHT22;34799;51.440;-2.534;2023-04-06T00:57:43;10.90;99.90
48988;DHT22;34799;51.440;-2.534;2023-04-06T01:00:13;10.90;99.90
48988;DHT22;34799;51.440;-2.534;2023-04-06T01:02:42;10.90;99.90
48988;DHT22;34799;51.440;-2.534;2023-04-06T01:05:10;10.90;99.90
48988;DHT22;34799;51.440;-2.534;2023-04-06T01:07:48;10.90;99.90
48988;DHT22;34799;51.440;-2.534;2023-04-06T01:10:27;11.00;99.90
48988;DHT22;34799;51.440;-2.534;2023-04-06T01:13:09;11.00;99.90
48988;DHT22;34799;51.440;-2.534;2023-04-06T01:15:47;11.00;99.90
48988;DHT22;34799;51.440;-2.534;2023-04-06T01:18:28;11.00;99.90
48988;DHT22;34799;51.440;-2.534;2023-04-06T01:21:18;11.00;99.90
48988;DHT22;34799;51.440;-2.534;2023-04-06T01:24:15;11.10;99.90
48988;DHT22;34799;51.440;-2.534;2023-04-06T01:26:59;11.10;99.90
48988;DHT22;34799;51.440;-2.534;2023-04-06T01:29:34;11.10;99.90
48988;DHT22;34799;51.440;-2.534;2023-04-06T01:32:15;11.10;99.90
48988;DHT22;34799;51.440;-2.534;2023-04-06T01:34:53;11.10;99.90
48988;DHT22;34799;51.440;-2.534;2023-04-06T01:37:21;13.00;99.90
48988;DHT22;34799;51.440;-2.534;2023-04-06T01:39:51;11.10;99.90
48988;DHT22;34799;51.440;-2.534;2023-04-06T01:42:26;11.20;99.90
48988;DHT22;34799;51.440;-2.534;2023-04-06T01:44:55;11.10;99.90
48988;DHT22;34799;51.440;-2.534;2023-04-06T01:47:23;11.10;99.90
48988;DHT22;34799;51.440;-2.534;2023-04-06T01:49:50;11.00;99.90
48988;DHT22;34799;51.440;-2.534;2023-04-06T01:52:17;11.10;99.90
48988;DHT22;34799;51.440;-2.534;2023-04-06T01:54:50;11.10;99.90
48988;DHT22;34799;51.440;-2.534;2023-04-06T01:57:42;11.10;99.90
48988;DHT22;34799;51.440;-2.534;2023-04-06T02:00:20;11.10;99.90
48988;DHT22;34799;51.440;-2.534;2023-04-06T02:02:52;11.10;99.90
48988;DHT22;34799;51.440;-2.534;2023-04-06T02:05:25;11.00;99.90
48988;DHT22;34799;51.440;-2.534;2023-04-06T02:07:54;11.00;99.90
48988;DHT22;34799;51.440;-2.534;2023-04-06T02:10:30;11.00;99.90
48988;DHT22;34799;51.440;-2.534;2023-04-06T02:13:01;11.00;99.90
48988;DHT22;34799;51.440;-2.534;2023-04-06T02:15:30;10.90;99.90
48988;DHT22;34799;51.440;-2.534;2023-04-06T02:17:59;10.90;99.90
48988;DHT22;34799;51.440;-2.534;2023-04-06T02:20:26;11.00;99.90
48988;DHT22;34799;51.440;-2.534;2023-04-06T02:22:53;10.60;99.90
48988;DHT22;34799;51.440;-2.534;2023-04-06T02:25:20;10.50;99.90
48988;DHT22;34799;51.440;-2.534;2023-04-06T02:27:49;10.50;99.90
48988;DHT22;34799;51.440;-2.534;2023-04-06T02:30:16;10.40;99.90
48988;DHT22;34799;51.440;-2.534;2023-04-06T02:32:43;10.40;99.90
48988;DHT22;34799;51.440;-2.534;2023-04-06T02:35:11;10.30;99.90
48988;DHT22;34799;51.440;-2.534;2023-04-06T02:37:40;10.30;99.90
48988;DHT22;34799;51.440;-2.534;2023-04-06T02:40:09;10.20;99.90
48988;DHT22;34799;51.440;-2.534;2023-04-06T02:42:36;10.10;99.90
48988;DHT22;34799;51.440;-2.534;2023-04-06T02:45:04;7.50;99.90
48988;DHT22;34799;51.440;-2.534;2023-04-06T02:47:37;10.10;99.90
48988;DHT22;34799;51.440;-2.534;2023-04-06T02:50:04;10.10;99.90
48988;DHT22;34799;51.440;-2.534;2023-04-06T02:52:36;10.10;99.90
48988;DHT22;34799;51.440;-2.534;2023-04-06T02:55:04;10.20;99.90
48988;DHT22;34799;51.440;-2.534;2023-04-06T02:57:31;10.10;99.90
48988;DHT22;34799;51.440;-2.534;2023-04-06T02:59:58;10.00;99.90
48988;DHT22;34799;51.440;-2.534;2023-04-06T03:02:33;10.10;99.90
48988;DHT22;34799;51.440;-2.534;2023-04-06T03:05:07;10.20;99.90
48988;DHT22;34799;51.440;-2.534;2023-04-06T03:07:37;10.10;99.90
48988;DHT22;34799;51.440;-2.534;2023-04-06T03:10:11;10.10;99.90
48988;DHT22;34799;51.440;-2.534;2023-04-06T03:12:38;10.10;99.90
48988;DHT22;34799;51.440;-2.534;2023-04-06T03:15:08;10.10;99.90
48988;DHT22;34799;51.440;-2.534;2023-04-06T03:17:38;10.10;99.90
48988;DHT22;34799;51.440;-2.534;2023-04-06T03:20:11;10.10;99.90
48988;DHT22;34799;51.440;-2.534;2023-04-06T03:22:38;10.10;99.90
48988;DHT22;34799;51.440;-2.534;2023-04-06T03:25:07;10.10;99.90
48988;DHT22;34799;51.440;-2.534;2023-04-06T03:27:35;10.10;99.90
48988;DHT22;34799;51.440;-2.534;2023-04-06T03:30:04;10.10;99.90
48988;DHT22;34799;51.440;-2.534;2023-04-06T03:32:34;10.10;99.90
48988;DHT22;34799;51.440;-2.534;2023-04-06T03:35:03;10.20;99.90
48988;DHT22;34799;51.440;-2.534;2023-04-06T03:37:30;10.20;99.90
48988;DHT22;34799;51.440;-2.534;2023-04-06T03:40:02;10.20;99.90
48988;DHT22;34799;51.440;-2.534;2023-04-06T03:42:30;10.30;99.90
48988;DHT22;34799;51.440;-2.534;2023-04-06T03:45:02;10.30;99.90
48988;DHT22;34799;51.440;-2.534;2023-04-06T03:47:31;10.20;99.90
48988;DHT22;34799;51.440;-2.534;2023-04-06T03:50:03;10.10;99.90
48988;DHT22;34799;51.440;-2.534;2023-04-06T03:52:34;10.10;99.90
48988;DHT22;34799;51.440;-2.534;2023-04-06T03:55:01;10.10;99.90
48988;DHT22;34799;51.440;-2.534;2023-04-06T03:57:28;10.10;99.90
48988;DHT22;34799;51.440;-2.534;2023-04-06T03:59:57;10.00;99.90
48988;DHT22;34799;51.440;-2.534;2023-04-06T04:02:25;10.00;99.90
48988;DHT22;34799;51.440;-2.534;2023-04-06T04:04:53;9.90;99.90
48988;DHT22;34799;51.440;-2.534;2023-04-06T04:07:20;9.90;99.90
48988;DHT22;34799;51.440;-2.534;2023-04-06T04:09:47;9.90;99.90
48988;DHT22;34799;51.440;-2.534;2023-04-06T04:12:14;10.10;99.90
48988;DHT22;34799;51.440;-2.534;2023-04-06T04:14:45;9.90;99.90
48988;DHT22;34799;51.440;-2.534;2023-04-06T04:17:12;10.00;99.90
48988;DHT22;34799;51.440;-2.534;2023-04-06T04:19:39;10.00;99.90
48988;DHT22;34799;51.440;-2.534;2023-04-06T04:22:06;9.90;99.90
48988;DHT22;34799;51.440;-2.534;2023-04-06T04:24:38;9.90;99.90
48988;DHT22;34799;51.440;-2.534;2023-04-06T04:27:05;9.90;99.90
48988;DHT22;34799;51.440;-2.534;2023-04-06T04:29:34;9.90;99.90
48988;DHT22;34799;51.440;-2.534;2023-04-06T04:32:05;9.90;99.90
48988;DHT22;34799;51.440;-2.534;2023-04-06T04:34:33;9.90;99.90
48988;DHT22;34799;51.440;-2.534;2023-04-06T04:37:00;9.90;99.90
48988;DHT22;34799;51.440;-2.534;2023-04-06T04:39:52;9.90;99.90
48988;DHT22;34799;51.440;-2.534;2023-04-06T04:42:19;10.00;99.90
48988;DHT22;34799;51.440;-2.534;2023-04-06T04:44:52;9.90;99.90
48988;DHT22;34799;51.440;-2.534;2023-04-06T04:47:31;10.00;99.90
48988;DHT22;34799;51.440;-2.534;2023-04-06T04:49:59;10.00;99.90
48988;DHT22;34799;51.440;-2.534;2023-04-06T04:52:26;10.00;99.90
48988;DHT22;34799;51.440;-2.534;2023-04-06T04:55:12;10.20;99.90
48988;DHT22;34799;51.440;-2.534;2023-04-06T04:57:41;10.10;99.90
48988;DHT22;34799;51.440;-2.534;2023-04-06T05:00:09;10.20;99.90
48988;DHT22;34799;51.440;-2.534;2023-04-06T05:02:40;10.20;99.90
48988;DHT22;34799;51.440;-2.534;2023-04-06T05:05:12;10.20;99.90
48988;DHT22;34799;51.440;-2.534;2023-04-06T05:07:41;10.20;99.90
48988;DHT22;34799;51.440;-2.534;2023-04-06T05:10:16;10.20;99.90
48988;DHT22;34799;51.440;-2.534;2023-04-06T05:12:51;10.30;99.90
48988;DHT22;34799;51.440;-2.534;2023-04-06T05:15:19;10.30;99.90
48988;DHT22;34799;51.440;-2.534;2023-04-06T05:17:48;10.50;99.90
48988;DHT22;34799;51.440;-2.534;2023-04-06T05:20:20;10.30;99.90
48988;DHT22;34799;51.440;-2.534;2023-04-06T05:22:50;10.30;99.90
48988;DHT22;34799;51.440;-2.534;2023-04-06T05:25:17;10.30;99.90
48988;DHT22;34799;51.440;-2.534;2023-04-06T05:27:48;10.20;99.90
48988;DHT22;34799;51.440;-2.534;2023-04-06T05:30:29;10.30;99.90
48988;DHT22;34799;51.440;-2.534;2023-04-06T05:32:58;10.20;99.90
48988;DHT22;34799;51.440;-2.534;2023-04-06T05:35:31;10.10;99.90
48988;DHT22;34799;51.440;-2.534;2023-04-06T05:38:07;10.10;99.90
48988;DHT22;34799;51.440;-2.534;2023-04-06T05:40:34;10.10;99.90
48988;DHT22;34799;51.440;-2.534;2023-04-06T05:43:01;10.10;99.90
48988;DHT22;34799;51.440;-2.534;2023-04-06T05:45:30;10.10;99.90
48988;DHT22;34799;51.440;-2.534;2023-04-06T05:47:59;10.10;99.90
48988;DHT22;34799;51.440;-2.534;2023-04-06T05:50:28;10.00;99.90
48988;DHT22;34799;51.440;-2.534;2023-04-06T05:52:57;10.00;99.90
48988;DHT22;34799;51.440;-2.534;2023-04-06T05:55:29;10.00;99.90
48988;DHT22;34799;51.440;-2.534;2023-04-06T05:58:09;10.00;99.90
48988;DHT22;34799;51.440;-2.534;2023-04-06T06:00:37;10.10;99.90
48988;DHT22;34799;51.440;-2.534;2023-04-06T06:03:07;9.90;99.90
48988;DHT22;34799;51.440;-2.534;2023-04-06T06:05:38;10.10;99.90
48988;DHT22;34799;51.440;-2.534;2023-04-06T06:08:10;9.90;99.90
48988;DHT22;34799;51.440;-2.534;2023-04-06T06:10:39;10.00;99.90
48988;DHT22;34799;51.440;-2.534;2023-04-06T06:13:09;9.90;99.90
48988;DHT22;34799;51.440;-2.534;2023-04-06T06:15:37;10.20;99.90
48988;DHT22;34799;51.440;-2.534;2023-04-06T06:18:04;10.00;99.90
48988;DHT22;34799;51.440;-2.534;2023-04-06T06:20:32;10.00;99.90
48988;DHT22;34799;51.440;-2.534;2023-04-06T06:23:02;10.00;99.90
48988;DHT22;34799;51.440;-2.534;2023-04-06T06:25:30;10.00;99.90
48988;DHT22;34799;51.440;-2.534;2023-04-06T06:27:59;10.00;99.90
48988;DHT22;34799;51.440;-2.534;2023-04-06T06:30:29;10.00;99.90
48988;DHT22;34799;51.440;-2.534;2023-04-06T06:32:56;10.10;99.90
48988;DHT22;34799;51.440;-2.534;2023-04-06T06:35:26;10.10;99.90
48988;DHT22;34799;51.440;-2.534;2023-04-06T06:37:53;10.20;99.90
48988;DHT22;34799;51.440;-2.534;2023-04-06T06:40:23;10.10;99.90
48988;DHT22;34799;51.440;-2.534;2023-04-06T06:42:53;10.20;99.90
48988;DHT22;34799;51.440;-2.534;2023-04-06T06:45:29;10.30;99.90
48988;DHT22;34799;51.440;-2.534;2023-04-06T06:47:56;10.30;99.90
48988;DHT22;34799;51.440;-2.534;2023-04-06T06:50:23;10.30;99.90
48988;DHT22;34799;51.440;-2.534;2023-04-06T06:52:51;10.30;99.90
48988;DHT22;34799;51.440;-2.534;2023-04-06T06:55:18;10.30;99.90
48988;DHT22;34799;51.440;-2.534;2023-04-06T06:57:45;10.40;99.90
48988;DHT22;34799;51.440;-2.534;2023-04-06T07:00:14;10.40;99.90
48988;DHT22;34799;51.440;-2.534;2023-04-06T07:02:43;10.40;99.90
48988;DHT22;34799;51.440;-2.534;2023-04-06T07:05:10;10.50;99.90
48988;DHT22;34799;51.440;-2.534;2023-04-06T07:07:42;10.50;99.90
48988;DHT22;34799;51.440;-2.534;2023-04-06T07:10:10;10.40;99.90
48988;DHT22;34799;51.440;-2.534;2023-04-06T07:12:37;10.40;99.90
48988;DHT22;34799;51.440;-2.534;2023-04-06T07:15:05;10.30;99.90
48988;DHT22;34799;51.440;-2.534;2023-04-06T07:17:34;10.30;99.90
48988;DHT22;34799;51.440;-2.534;2023-04-06T07:20:01;10.30;99.90
48988;DHT22;34799;51.440;-2.534;2023-04-06T07:22:30;10.30;99.90
48988;DHT22;34799;51.440;-2.534;2023-04-06T07:24:57;10.20;99.90
48988;DHT22;34799;51.440;-2.534;2023-04-06T07:27:27;10.20;99.90
48988;DHT22;34799;51.440;-2.534;2023-04-06T07:29:54;10.30;99.90
48988;DHT22;34799;51.440;-2.534;2023-04-06T07:32:22;10.20;99.90
48988;DHT22;34799;51.440;-2.534;2023-04-06T07:34:49;10.10;99.90
48988;DHT22;34799;51.440;-2.534;2023-04-06T07:37:17;10.10;99.90
48988;DHT22;34799;51.440;-2.534;2023-04-06T07:39:44;10.10;99.90
48988;DHT22;34799;51.440;-2.534;2023-04-06T07:42:13;10.10;99.90
48988;DHT22;34799;51.440;-2.534;2023-04-06T07:44:40;10.10;99.90
48988;DHT22;34799;51.440;-2.534;2023-04-06T07:47:08;10.10;99.90
48988;DHT22;34799;51.440;-2.534;2023-04-06T07:49:36;10.00;99.90
48988;DHT22;34799;51.440;-2.534;2023-04-06T07:52:06;10.00;99.90
48988;DHT22;34799;51.440;-2.534;2023-04-06T07:54:33;10.00;99.90
48988;DHT22;34799;51.440;-2.534;2023-04-06T07:57:00;10.00;99.90
48988;DHT22;34799;51.440;-2.534;2023-04-06T07:59:27;10.00;99.90
48988;DHT22;34799;51.440;-2.534;2023-04-06T08:01:54;10.00;99.90
48988;DHT22;34799;51.440;-2.534;2023-04-06T08:04:21;10.00;99.90
48988;DHT22;34799;51.440;-2.534;2023-04-06T08:06:48;10.10;99.90
48988;DHT22;34799;51.440;-2.534;2023-04-06T08:09:17;10.30;99.90
48988;DHT22;34799;51.440;-2.534;2023-04-06T08:11:44;10.10;99.90
48988;DHT22;34799;51.440;-2.534;2023-04-06T08:14:12;10.20;99.90
48988;DHT22;34799;51.440;-2.534;2023-04-06T08:16:39;10.30;99.90
48988;DHT22;34799;51.440;-2.534;2023-04-06T08:19:07;10.30;99.90
48988;DHT22;34799;51.440;-2.534;2023-04-06T08:21:36;10.40;99.90
48988;DHT22;34799;51.440;-2.534;2023-04-06T08:24:04;10.40;99.90
48988;DHT22;34799;51.440;-2.534;2023-04-06T08:26:32;10.40;99.90
48988;DHT22;34799;51.440;-2.534;2023-04-06T08:28:59;10.50;99.90
48988;DHT22;34799;51.440;-2.534;2023-04-06T08:31:26;10.60;99.90
48988;DHT22;34799;51.440;-2.534;2023-04-06T08:33:56;10.60;99.90
48988;DHT22;34799;51.440;-2.534;2023-04-06T08:36:23;10.70;99.90
48988;DHT22;34799;51.440;-2.534;2023-04-06T08:38:50;10.80;99.90
48988;DHT22;34799;51.440;-2.534;2023-04-06T08:41:19;10.90;99.90
48988;DHT22;34799;51.440;-2.534;2023-04-06T08:43:47;11.00;99.90
48988;DHT22;34799;51.440;-2.534;2023-04-06T08:46:15;11.20;99.90
48988;DHT22;34799;51.440;-2.534;2023-04-06T08:48:43;11.20;99.90
48988;DHT22;34799;51.440;-2.534;2023-04-06T08:51:10;11.10;99.90
48988;DHT22;34799;51.440;-2.534;2023-04-06T08:53:38;11.20;99.90
48988;DHT22;34799;51.440;-2.534;2023-04-06T08:56:05;11.30;99.90
48988;DHT22;34799;51.440;-2.534;2023-04-06T08:58:37;11.30;99.90
48988;DHT22;34799;51.440;-2.534;2023-04-06T09:01:10;11.50;99.90
48988;DHT22;34799;51.440;-2.534;2023-04-06T09:03:39;11.50;99.90
48988;DHT22;34799;51.440;-2.534;2023-04-06T09:06:07;11.60;99.90
48988;DHT22;34799;51.440;-2.534;2023-04-06T09:08:39;11.70;99.90
48988;DHT22;34799;51.440;-2.534;2023-04-06T09:11:07;11.70;99.90
48988;DHT22;34799;51.440;-2.534;2023-04-06T09:13:48;11.70;99.90
48988;DHT22;34799;51.440;-2.534;2023-04-06T09:16:16;11.80;99.90
48988;DHT22;34799;51.440;-2.534;2023-04-06T09:18:43;11.70;99.90
48988;DHT22;34799;51.440;-2.534;2023-04-06T09:21:10;11.70;99.90
48988;DHT22;34799;51.440;-2.534;2023-04-06T09:23:39;11.80;99.90
48988;DHT22;34799;51.440;-2.534;2023-04-06T09:26:11;11.90;99.90
48988;DHT22;34799;51.440;-2.534;2023-04-06T09:28:45;11.80;99.90
48988;DHT22;34799;51.440;-2.534;2023-04-06T09:31:14;11.90;99.90
48988;DHT22;34799;51.440;-2.534;2023-04-06T09:33:44;11.90;99.90
48988;DHT22;34799;51.440;-2.534;2023-04-06T09:36:12;11.90;99.90
48988;DHT22;34799;51.440;-2.534;2023-04-06T09:38:53;12.00;99.90
48988;DHT22;34799;51.440;-2.534;2023-04-06T09:41:24;11.90;99.90
48988;DHT22;34799;51.440;-2.534;2023-04-06T09:44:04;12.00;99.90
48988;DHT22;34799;51.440;-2.534;2023-04-06T09:46:42;13.10;99.90
48988;DHT22;34799;51.440;-2.534;2023-04-06T09:49:22;12.10;99.90
48988;DHT22;34799;51.440;-2.534;2023-04-06T09:51:55;12.20;99.90
48988;DHT22;34799;51.440;-2.534;2023-04-06T09:54:28;12.20;99.90
48988;DHT22;34799;51.440;-2.534;2023-04-06T09:57:11;12.30;99.90
48988;DHT22;34799;51.440;-2.534;2023-04-06T10:05:55;12.50;99.90
48988;DHT22;34799;51.440;-2.534;2023-04-06T10:08:27;12.60;99.90
48988;DHT22;34799;51.440;-2.534;2023-04-06T10:10:57;12.60;99.90
48988;DHT22;34799;51.440;-2.534;2023-04-06T10:13:25;12.60;99.90
48988;DHT22;34799;51.440;-2.534;2023-04-06T10:15:52;12.60;99.90
48988;DHT22;34799;51.440;-2.534;2023-04-06T10:18:21;12.70;99.90
48988;DHT22;34799;51.440;-2.534;2023-04-06T10:20:53;12.70;99.90
48988;DHT22;34799;51.440;-2.534;2023-04-06T10:23:29;12.70;99.90
48988;DHT22;34799;51.440;-2.534;2023-04-06T10:25:59;12.80;99.90
48988;DHT22;34799;51.440;-2.534;2023-04-06T10:28:35;12.90;99.90
48988;DHT22;34799;51.440;-2.534;2023-04-06T10:31:06;12.80;99.90
48988;DHT22;34799;51.440;-2.534;2023-04-06T10:33:34;12.60;99.90
48988;DHT22;34799;51.440;-2.534;2023-04-06T10:36:14;12.60;99.90
48988;DHT22;34799;51.440;-2.534;2023-04-06T10:38:42;12.70;99.90
48988;DHT22;34799;51.440;-2.534;2023-04-06T10:41:10;12.70;99.90
48988;DHT22;34799;51.440;-2.534;2023-04-06T10:43:40;12.90;99.90
48988;DHT22;34799;51.440;-2.534;2023-04-06T10:46:08;13.00;99.90
48988;DHT22;34799;51.440;-2.534;2023-04-06T10:48:44;13.10;99.90
48988;DHT22;34799;51.440;-2.534;2023-04-06T10:51:17;13.00;99.90
48988;DHT22;34799;51.440;-2.534;2023-04-06T10:53:46;13.00;99.90
48988;DHT22;34799;51.440;-2.534;2023-04-06T10:56:18;13.00;99.90
48988;DHT22;34799;51.440;-2.534;2023-04-06T10:58:50;13.10;99.90
48988;DHT22;34799;51.440;-2.534;2023-04-06T11:01:20;13.30;99.90
48988;DHT22;34799;51.440;-2.534;2023-04-06T11:03:49;13.20;99.90
48988;DHT22;34799;51.440;-2.534;2023-04-06T11:06:25;13.00;99.90
48988;DHT22;34799;51.440;-2.534;2023-04-06T11:08:55;12.50;99.90
48988;DHT22;34799;51.440;-2.534;2023-04-06T11:11:24;11.10;99.90
48988;DHT22;34799;51.440;-2.534;2023-04-06T11:18:51;11.70;99.90
48988;DHT22;34799;51.440;-2.534;2023-04-06T11:21:19;11.60;99.90
48988;DHT22;34799;51.440;-2.534;2023-04-06T11:23:46;11.70;99.90
48988;DHT22;34799;51.440;-2.534;2023-04-06T11:26:15;11.70;99.90
48988;DHT22;34799;51.440;-2.534;2023-04-06T11:28:43;11.80;99.90
48988;DHT22;34799;51.440;-2.534;2023-04-06T11:31:10;11.90;99.90
48988;DHT22;34799;51.440;-2.534;2023-04-06T11:33:38;11.90;99.90
48988;DHT22;34799;51.440;-2.534;2023-04-06T11:36:07;11.90;99.90
48988;DHT22;34799;51.440;-2.534;2023-04-06T11:38:39;12.00;99.90
48988;DHT22;34799;51.440;-2.534;2023-04-06T11:41:06;12.10;99.90
48988;DHT22;34799;51.440;-2.534;2023-04-06T11:43:33;12.30;99.90
48988;DHT22;34799;51.440;-2.534;2023-04-06T11:46:03;12.40;99.90
48988;DHT22;34799;51.440;-2.534;2023-04-06T11:48:31;12.60;99.90
48988;DHT22;34799;51.440;-2.534;2023-04-06T11:50:59;12.70;99.90
48988;DHT22;34799;51.440;-2.534;2023-04-06T11:53:31;12.90;99.90
48988;DHT22;34799;51.440;-2.534;2023-04-06T11:56:00;13.10;99.90
48988;DHT22;34799;51.440;-2.534;2023-04-06T11:58:27;13.10;99.90
48988;DHT22;34799;51.440;-2.534;2023-04-06T12:01:03;13.30;99.90
48988;DHT22;34799;51.440;-2.534;2023-04-06T12:03:31;13.40;99.90
48988;DHT22;34799;51.440;-2.534;2023-04-06T12:05:58;13.40;99.90
48988;DHT22;34799;51.440;-2.534;2023-04-06T12:08:26;13.50;99.90
48988;DHT22;34799;51.440;-2.534;2023-04-06T12:10:53;13.60;99.90
48988;DHT22;34799;51.440;-2.534;2023-04-06T12:13:21;13.60;99.90
48988;DHT22;34799;51.440;-2.534;2023-04-06T12:15:48;13.60;99.90
48988;DHT22;34799;51.440;-2.534;2023-04-06T12:18:15;13.60;99.90
48988;DHT22;34799;51.440;-2.534;2023-04-06T12:20:43;13.70;99.90
48988;DHT22;34799;51.440;-2.534;2023-04-06T12:23:10;13.60;99.90
48988;DHT22;34799;51.440;-2.534;2023-04-06T12:25:39;13.60;99.90
48988;DHT22;34799;51.440;-2.534;2023-04-06T12:28:07;13.60;99.90
48988;DHT22;34799;51.440;-2.534;2023-04-06T12:30:35;13.70;99.90
48988;DHT22;34799;51.440;-2.534;2023-04-06T12:33:03;13.80;99.90
48988;DHT22;34799;51.440;-2.534;2023-04-06T12:35:33;13.80;99.90
48988;DHT22;34799;51.440;-2.534;2023-04-06T12:38:00;13.80;99.90
48988;DHT22;34799;51.440;-2.534;2023-04-06T12:40:27;13.80;99.90
48988;DHT22;34799;51.440;-2.534;2023-04-06T12:42:56;13.70;99.90
48988;DHT22;34799;51.440;-2.534;2023-04-06T12:45:23;13.80;99.90
48988;DHT22;34799;51.440;-2.534;2023-04-06T12:47:50;13.90;99.90
48988;DHT22;34799;51.440;-2.534;2023-04-06T12:50:17;14.10;99.90
48988;DHT22;34799;51.440;-2.534;2023-04-06T12:52:44;13.90;99.90
48988;DHT22;34799;51.440;-2.534;2023-04-06T12:55:12;13.40;99.90
48988;DHT22;34799;51.440;-2.534;2023-04-06T12:57:40;13.00;99.90
48988;DHT22;34799;51.440;-2.534;2023-04-06T13:00:08;12.90;99.90
48988;DHT22;34799;51.440;-2.534;2023-04-06T13:02:35;12.90;99.90
48988;DHT22;34799;51.440;-2.534;2023-04-06T13:05:02;12.50;99.90
48988;DHT22;34799;51.440;-2.534;2023-04-06T13:07:29;12.10;99.90
48988;DHT22;34799;51.440;-2.534;2023-04-06T13:09:57;11.80;99.90
48988;DHT22;34799;51.440;-2.534;2023-04-06T13:12:26;11.60;99.90
48988;DHT22;34799;51.440;-2.534;2023-04-06T13:14:53;11.50;99.90
48988;DHT22;34799;51.440;-2.534;2023-04-06T13:17:21;11.50;99.90
48988;DHT22;34799;51.440;-2.534;2023-04-06T13:19:48;11.50;99.90
48988;DHT22;34799;51.440;-2.534;2023-04-06T13:22:15;11.50;99.90
48988;DHT22;34799;51.440;-2.534;2023-04-06T13:24:42;11.40;99.90
48988;DHT22;34799;51.440;-2.534;2023-04-06T13:27:09;11.40;99.90
48988;DHT22;34799;51.440;-2.534;2023-04-06T13:29:37;11.50;99.90
48988;DHT22;34799;51.440;-2.534;2023-04-06T13:32:05;11.90;99.90
48988;DHT22;34799;51.440;-2.534;2023-04-06T13:34:32;11.80;99.90
48988;DHT22;34799;51.440;-2.534;2023-04-06T13:36:59;11.90;99.90
48988;DHT22;34799;51.440;-2.534;2023-04-06T13:39:26;11.90;99.90
48988;DHT22;34799;51.440;-2.534;2023-04-06T13:41:54;12.00;99.90
48988;DHT22;34799;51.440;-2.534;2023-04-06T13:44:23;12.10;99.90
48988;DHT22;34799;51.440;-2.534;2023-04-06T13:46:50;12.20;99.90
48988;DHT22;34799;51.440;-2.534;2023-04-06T13:49:17;12.00;99.90
48988;DHT22;34799;51.440;-2.534;2023-04-06T13:51:44;11.90;99.90
48988;DHT22;34799;51.440;-2.534;2023-04-06T13:54:11;11.70;99.90
48988;DHT22;34799;51.440;-2.534;2023-04-06T13:56:38;11.90;99.90
48988;DHT22;34799;51.440;-2.534;2023-04-06T13:59:05;11.80;99.90
48988;DHT22;34799;51.440;-2.534;2023-04-06T14:01:33;11.90;99.90
48988;DHT22;34799;51.440;-2.534;2023-04-06T14:04:01;12.00;99.90
48988;DHT22;34799;51.440;-2.534;2023-04-06T14:06:28;12.10;99.90
48988;DHT22;34799;51.440;-2.534;2023-04-06T14:08:57;12.40;99.90
48988;DHT22;34799;51.440;-2.534;2023-04-06T14:11:24;12.60;99.90
48988;DHT22;34799;51.440;-2.534;2023-04-06T14:13:51;12.60;99.90
48988;DHT22;34799;51.440;-2.534;2023-04-06T14:16:18;12.90;99.90
48988;DHT22;34799;51.440;-2.534;2023-04-06T14:18:47;13.20;99.90
48988;DHT22;34799;51.440;-2.534;2023-04-06T14:21:14;13.40;99.90
48988;DHT22;34799;51.440;-2.534;2023-04-06T14:23:41;13.30;99.90
48988;DHT22;34799;51.440;-2.534;2023-04-06T14:26:08;13.30;99.90
48988;DHT22;34799;51.440;-2.534;2023-04-06T14:28:36;13.30;99.90
48988;DHT22;34799;51.440;-2.534;2023-04-06T14:31:10;13.40;99.90
48988;DHT22;34799;51.440;-2.534;2023-04-06T14:33:39;13.60;99.90
48988;DHT22;34799;51.440;-2.534;2023-04-06T14:36:08;13.70;99.90
48988;DHT22;34799;51.440;-2.534;2023-04-06T14:38:35;13.70;99.90
48988;DHT22;34799;51.440;-2.534;2023-04-06T14:41:02;13.60;99.90
48988;DHT22;34799;51.440;-2.534;2023-04-06T14:43:29;13.50;99.90
48988;DHT22;34799;51.440;-2.534;2023-04-06T14:46:01;13.30;99.90
48988;DHT22;34799;51.440;-2.534;2023-04-06T14:48:28;13.10;99.90
48988;DHT22;34799;51.440;-2.534;2023-04-06T14:50:56;13.00;99.90
48988;DHT22;34799;51.440;-2.534;2023-04-06T14:53:23;13.30;99.90
48988;DHT22;34799;51.440;-2.534;2023-04-06T14:55:50;13.20;99.90
48988;DHT22;34799;51.440;-2.534;2023-04-06T14:58:21;13.10;99.90
48988;DHT22;34799;51.440;-2.534;2023-04-06T15:00:49;13.20;99.90
48988;DHT22;34799;51.440;-2.534;2023-04-06T15:03:22;13.40;99.90
48988;DHT22;34799;51.440;-2.534;2023-04-06T15:05:56;13.70;99.90
48988;DHT22;34799;51.440;-2.534;2023-04-06T15:08:23;13.90;99.90
48988;DHT22;34799;51.440;-2.534;2023-04-06T15:10:51;14.20;99.90
48988;DHT22;34799;51.440;-2.534;2023-04-06T15:13:18;14.10;99.90
48988;DHT22;34799;51.440;-2.534;2023-04-06T15:15:46;14.20;99.90
48988;DHT22;34799;51.440;-2.534;2023-04-06T15:18:13;14.30;99.90
48988;DHT22;34799;51.440;-2.534;2023-04-06T15:20:41;14.30;99.90
48988;DHT22;34799;51.440;-2.534;2023-04-06T15:23:09;14.30;99.90
48988;DHT22;34799;51.440;-2.534;2023-04-06T15:25:36;15.00;99.90
48988;DHT22;34799;51.440;-2.534;2023-04-06T15:28:03;14.90;99.90
48988;DHT22;34799;51.440;-2.534;2023-04-06T15:30:30;15.10;99.90
48988;DHT22;34799;51.440;-2.534;2023-04-06T15:33:01;14.50;99.90
48988;DHT22;34799;51.440;-2.534;2023-04-06T15:35:33;14.70;99.90
48988;DHT22;34799;51.440;-2.534;2023-04-06T15:38:02;14.00;99.90
48988;DHT22;34799;51.440;-2.534;2023-04-06T15:40:29;13.60;99.90
48988;DHT22;34799;51.440;-2.534;2023-04-06T15:42:56;13.30;99.90